sensor_id;sensor_type;location;lat;lon;timestamp;P1;durP1;ratioP1;P2;durP2;ratioP2
57651;SDS011;43480;53.116;6.734;2024-02-14T00:01:53;13.93;;;8.30;;
57651;SDS011;43480;53.116;6.734;2024-02-14T00:04:19;13.82;;;8.48;;
57651;SDS011;43480;53.116;6.734;2024-02-14T00:06:45;13.55;;;9.00;;
57651;SDS011;43480;53.116;6.734;2024-02-14T00:09:11;14.32;;;9.38;;
57651;SDS011;43480;53.116;6.734;2024-02-14T00:11:37;12.93;;;8.93;;
57651;SDS011;43480;53.116;6.734;2024-02-14T00:14:02;17.00;;;9.68;;
57651;SDS011;43480;53.116;6.734;2024-02-14T00:16:28;13.27;;;8.63;;
57651;SDS011;43480;53.116;6.734;2024-02-14T00:18:57;20.73;;;9.90;;
57651;SDS011;43480;53.116;6.734;2024-02-14T00:21:23;15.48;;;9.65;;
57651;SDS011;43480;53.116;6.734;2024-02-14T00:23:49;16.05;;;9.60;;
57651;SDS011;43480;53.116;6.734;2024-02-14T00:26:15;16.23;;;10.52;;
57651;SDS011;43480;53.116;6.734;2024-02-14T00:28:41;15.50;;;10.55;;
57651;SDS011;43480;53.116;6.734;2024-02-14T00:31:07;19.25;;;11.27;;
57651;SDS011;43480;53.116;6.734;2024-02-14T00:33:32;16.30;;;11.27;;
57651;SDS011;43480;53.116;6.734;2024-02-14T00:35:58;18.77;;;11.80;;
57651;SDS011;43480;53.116;6.734;2024-02-14T00:38:24;14.60;;;10.60;;
57651;SDS011;43480;53.116;6.734;2024-02-14T00:40:49;17.85;;;11.27;;
57651;SDS011;43480;53.116;6.734;2024-02-14T00:43:15;16.08;;;10.63;;
57651;SDS011;43480;53.116;6.734;2024-02-14T00:45:41;15.25;;;10.02;;
57651;SDS011;43480;53.116;6.734;2024-02-14T00:48:06;16.05;;;10.85;;
57651;SDS011;43480;53.116;6.734;2024-02-14T00:50:32;16.38;;;10.75;;
57651;SDS011;43480;53.116;6.734;2024-02-14T00:53:02;17.88;;;11.32;;
57651;SDS011;43480;53.116;6.734;2024-02-14T00:55:28;17.92;;;12.05;;
57651;SDS011;43480;53.116;6.734;2024-02-14T00:57:54;15.95;;;11.75;;
57651;SDS011;43480;53.116;6.734;2024-02-14T01:00:19;17.67;;;11.95;;
57651;SDS011;43480;53.116;6.734;2024-02-14T01:02:45;15.52;;;11.70;;
57651;SDS011;43480;53.116;6.734;2024-02-14T01:05:11;16.95;;;12.05;;
57651;SDS011;43480;53.116;6.734;2024-02-14T01:07:37;18.00;;;11.98;;
57651;SDS011;43480;53.116;6.734;2024-02-14T01:10:02;17.23;;;11.63;;
57651;SDS011;43480;53.116;6.734;2024-02-14T01:12:28;15.50;;;11.40;;
57651;SDS011;43480;53.116;6.734;2024-02-14T01:14:57;15.40;;;11.35;;
57651;SDS011;43480;53.116;6.734;2024-02-14T01:17:23;17.02;;;10.63;;
57651;SDS011;43480;53.116;6.734;2024-02-14T01:19:49;17.00;;;10.95;;
57651;SDS011;43480;53.116;6.734;2024-02-14T01:22:16;14.32;;;10.25;;
57651;SDS011;43480;53.116;6.734;2024-02-14T01:24:44;14.93;;;11.27;;
57651;SDS011;43480;53.116;6.734;2024-02-14T01:27:10;14.63;;;11.10;;
57651;SDS011;43480;53.116;6.734;2024-02-14T01:29:36;15.48;;;10.65;;
57651;SDS011;43480;53.116;6.734;2024-02-14T01:32:01;16.77;;;11.13;;
57651;SDS011;43480;53.116;6.734;2024-02-14T01:34:29;15.90;;;10.60;;
57651;SDS011;43480;53.116;6.734;2024-02-14T01:36:55;15.82;;;10.18;;
57651;SDS011;43480;53.116;6.734;2024-02-14T01:39:20;14.82;;;10.10;;
57651;SDS011;43480;53.116;6.734;2024-02-14T01:41:47;15.48;;;9.68;;
57651;SDS011;43480;53.116;6.734;2024-02-14T01:44:17;13.25;;;10.00;;
57651;SDS011;43480;53.116;6.734;2024-02-14T01:46:43;11.18;;;9.02;;
57651;SDS011;43480;53.116;6.734;2024-02-14T01:49:12;12.93;;;9.68;;
57651;SDS011;43480;53.116;6.734;2024-02-14T01:51:39;14.70;;;9.65;;
57651;SDS011;43480;53.116;6.734;2024-02-14T01:54:09;11.48;;;9.15;;
57651;SDS011;43480;53.116;6.734;2024-02-14T01:56:37;12.55;;;8.75;;
57651;SDS011;43480;53.116;6.734;2024-02-14T01:59:03;13.38;;;8.15;;
57651;SDS011;43480;53.116;6.734;2024-02-14T02:01:31;11.52;;;8.38;;
57651;SDS011;43480;53.116;6.734;2024-02-14T02:03:57;11.07;;;8.40;;
57651;SDS011;43480;53.116;6.734;2024-02-14T02:06:23;12.10;;;8.27;;
57651;SDS011;43480;53.116;6.734;2024-02-14T02:08:51;10.63;;;7.82;;
57651;SDS011;43480;53.116;6.734;2024-02-14T02:11:17;11.13;;;7.68;;
57651;SDS011;43480;53.116;6.734;2024-02-14T02:13:43;11.75;;;7.97;;
57651;SDS011;43480;53.116;6.734;2024-02-14T02:16:09;10.65;;;7.80;;
57651;SDS011;43480;53.116;6.734;2024-02-14T02:18:35;10.38;;;7.63;;
57651;SDS011;43480;53.116;6.734;2024-02-14T02:21:02;12.52;;;8.40;;
57651;SDS011;43480;53.116;6.734;2024-02-14T02:23:32;11.45;;;8.13;;
57651;SDS011;43480;53.116;6.734;2024-02-14T02:26:01;12.48;;;8.73;;
57651;SDS011;43480;53.116;6.734;2024-02-14T02:28:27;11.02;;;7.90;;
57651;SDS011;43480;53.116;6.734;2024-02-14T02:30:53;12.10;;;8.35;;
57651;SDS011;43480;53.116;6.734;2024-02-14T02:33:21;11.85;;;8.23;;
57651;SDS011;43480;53.116;6.734;2024-02-14T02:35:47;12.68;;;8.48;;
57651;SDS011;43480;53.116;6.734;2024-02-14T02:38:15;12.45;;;8.45;;
57651;SDS011;43480;53.116;6.734;2024-02-14T02:40:42;12.00;;;9.45;;
57651;SDS011;43480;53.116;6.734;2024-02-14T02:43:08;13.10;;;8.52;;
57651;SDS011;43480;53.116;6.734;2024-02-14T02:45:35;12.63;;;8.32;;
57651;SDS011;43480;53.116;6.734;2024-02-14T02:48:01;12.57;;;8.25;;
57651;SDS011;43480;53.116;6.734;2024-02-14T02:50:27;11.63;;;8.30;;
57651;SDS011;43480;53.116;6.734;2024-02-14T02:52:54;11.32;;;7.85;;
57651;SDS011;43480;53.116;6.734;2024-02-14T02:55:20;12.07;;;7.85;;
57651;SDS011;43480;53.116;6.734;2024-02-14T02:57:45;13.27;;;8.43;;
57651;SDS011;43480;53.116;6.734;2024-02-14T03:00:11;12.35;;;8.35;;
57651;SDS011;43480;53.116;6.734;2024-02-14T03:02:39;11.27;;;7.85;;
57651;SDS011;43480;53.116;6.734;2024-02-14T03:05:09;11.68;;;8.00;;
57651;SDS011;43480;53.116;6.734;2024-02-14T03:07:42;11.40;;;8.15;;
57651;SDS011;43480;53.116;6.734;2024-02-14T03:10:13;12.45;;;7.60;;
57651;SDS011;43480;53.116;6.734;2024-02-14T03:12:39;12.32;;;8.30;;
57651;SDS011;43480;53.116;6.734;2024-02-14T03:15:05;13.13;;;8.13;;
57651;SDS011;43480;53.116;6.734;2024-02-14T03:17:35;12.45;;;8.02;;
57651;SDS011;43480;53.116;6.734;2024-02-14T03:20:01;11.02;;;7.43;;
57651;SDS011;43480;53.116;6.734;2024-02-14T03:22:27;11.57;;;7.82;;
57651;SDS011;43480;53.116;6.734;2024-02-14T03:24:53;11.20;;;7.47;;
57651;SDS011;43480;53.116;6.734;2024-02-14T03:27:18;10.60;;;7.40;;
57651;SDS011;43480;53.116;6.734;2024-02-14T03:29:44;10.93;;;7.47;;
57651;SDS011;43480;53.116;6.734;2024-02-14T03:32:12;10.10;;;7.20;;
57651;SDS011;43480;53.116;6.734;2024-02-14T03:34:38;10.25;;;6.65;;
57651;SDS011;43480;53.116;6.734;2024-02-14T03:37:05;10.85;;;6.95;;
57651;SDS011;43480;53.116;6.734;2024-02-14T03:39:32;9.48;;;6.63;;
57651;SDS011;43480;53.116;6.734;2024-02-14T03:41:57;12.18;;;6.90;;
57651;SDS011;43480;53.116;6.734;2024-02-14T03:44:26;12.82;;;6.93;;
57651;SDS011;43480;53.116;6.734;2024-02-14T03:46:51;10.13;;;6.78;;
57651;SDS011;43480;53.116;6.734;2024-02-14T03:49:18;10.25;;;6.45;;
57651;SDS011;43480;53.116;6.734;2024-02-14T03:51:44;10.35;;;6.05;;
57651;SDS011;43480;53.116;6.734;2024-02-14T03:54:11;9.40;;;5.80;;
57651;SDS011;43480;53.116;6.734;2024-02-14T03:56:37;8.73;;;5.80;;
57651;SDS011;43480;53.116;6.734;2024-02-14T03:59:03;8.73;;;5.15;;
57651;SDS011;43480;53.116;6.734;2024-02-14T04:01:31;9.90;;;5.97;;
57651;SDS011;43480;53.116;6.734;2024-02-14T04:03:56;9.68;;;5.40;;
57651;SDS011;43480;53.116;6.734;2024-02-14T04:06:22;9.90;;;6.15;;
57651;SDS011;43480;53.116;6.734;2024-02-14T04:08:48;9.63;;;5.70;;
57651;SDS011;43480;53.116;6.734;2024-02-14T04:11:14;9.05;;;5.60;;
57651;SDS011;43480;53.116;6.734;2024-02-14T04:13:40;9.15;;;5.32;;
57651;SDS011;43480;53.116;6.734;2024-02-14T04:16:05;8.70;;;5.03;;
57651;SDS011;43480;53.116;6.734;2024-02-14T04:18:31;9.88;;;5.38;;
57651;SDS011;43480;53.116;6.734;2024-02-14T04:20:57;8.90;;;5.60;;
57651;SDS011;43480;53.116;6.734;2024-02-14T04:23:23;9.05;;;5.30;;
57651;SDS011;43480;53.116;6.734;2024-02-14T04:25:50;8.23;;;5.07;;
57651;SDS011;43480;53.116;6.734;2024-02-14T04:28:16;8.63;;;5.13;;
57651;SDS011;43480;53.116;6.734;2024-02-14T04:30:42;9.85;;;5.68;;
57651;SDS011;43480;53.116;6.734;2024-02-14T04:33:08;9.45;;;5.63;;
57651;SDS011;43480;53.116;6.734;2024-02-14T04:35:34;8.05;;;5.53;;
57651;SDS011;43480;53.116;6.734;2024-02-14T04:38:00;8.80;;;5.07;;
57651;SDS011;43480;53.116;6.734;2024-02-14T04:40:26;10.02;;;5.10;;
57651;SDS011;43480;53.116;6.734;2024-02-14T04:42:51;8.63;;;4.93;;
57651;SDS011;43480;53.116;6.734;2024-02-14T04:45:17;7.25;;;4.55;;
57651;SDS011;43480;53.116;6.734;2024-02-14T04:47:43;7.28;;;4.22;;
57651;SDS011;43480;53.116;6.734;2024-02-14T04:50:09;7.05;;;4.15;;
57651;SDS011;43480;53.116;6.734;2024-02-14T04:52:35;7.32;;;4.32;;
57651;SDS011;43480;53.116;6.734;2024-02-14T04:55:01;8.35;;;4.97;;
57651;SDS011;43480;53.116;6.734;2024-02-14T04:57:26;8.35;;;3.97;;
57651;SDS011;43480;53.116;6.734;2024-02-14T04:59:52;8.30;;;4.68;;
57651;SDS011;43480;53.116;6.734;2024-02-14T05:02:17;7.28;;;4.95;;
57651;SDS011;43480;53.116;6.734;2024-02-14T05:04:43;6.95;;;4.47;;
57651;SDS011;43480;53.116;6.734;2024-02-14T05:07:09;7.15;;;4.45;;
57651;SDS011;43480;53.116;6.734;2024-02-14T05:09:34;8.00;;;4.60;;
57651;SDS011;43480;53.116;6.734;2024-02-14T05:12:00;7.93;;;4.63;;
57651;SDS011;43480;53.116;6.734;2024-02-14T05:14:26;7.85;;;4.60;;
57651;SDS011;43480;53.116;6.734;2024-02-14T05:16:56;8.07;;;4.60;;
57651;SDS011;43480;53.116;6.734;2024-02-14T05:19:21;7.25;;;4.18;;
57651;SDS011;43480;53.116;6.734;2024-02-14T05:21:47;7.93;;;4.75;;
57651;SDS011;43480;53.116;6.734;2024-02-14T05:24:13;8.13;;;4.47;;
57651;SDS011;43480;53.116;6.734;2024-02-14T05:26:39;9.07;;;4.55;;
57651;SDS011;43480;53.116;6.734;2024-02-14T05:29:05;7.90;;;4.43;;
57651;SDS011;43480;53.116;6.734;2024-02-14T05:31:42;7.20;;;4.00;;
57651;SDS011;43480;53.116;6.734;2024-02-14T05:34:09;6.45;;;4.00;;
57651;SDS011;43480;53.116;6.734;2024-02-14T05:36:35;8.60;;;4.95;;
57651;SDS011;43480;53.116;6.734;2024-02-14T05:39:01;9.68;;;5.40;;
57651;SDS011;43480;53.116;6.734;2024-02-14T05:41:27;8.20;;;5.15;;
57651;SDS011;43480;53.116;6.734;2024-02-14T05:43:53;8.27;;;4.80;;
57651;SDS011;43480;53.116;6.734;2024-02-14T05:46:18;7.30;;;4.82;;
57651;SDS011;43480;53.116;6.734;2024-02-14T05:48:46;8.80;;;5.22;;
57651;SDS011;43480;53.116;6.734;2024-02-14T05:51:13;8.13;;;5.30;;
57651;SDS011;43480;53.116;6.734;2024-02-14T05:53:39;7.82;;;4.60;;
57651;SDS011;43480;53.116;6.734;2024-02-14T05:56:05;8.10;;;4.68;;
57651;SDS011;43480;53.116;6.734;2024-02-14T05:58:31;7.90;;;4.82;;
57651;SDS011;43480;53.116;6.734;2024-02-14T06:00:57;9.02;;;5.57;;
57651;SDS011;43480;53.116;6.734;2024-02-14T06:03:22;8.70;;;5.63;;
57651;SDS011;43480;53.116;6.734;2024-02-14T06:05:48;10.10;;;5.72;;
57651;SDS011;43480;53.116;6.734;2024-02-14T06:08:13;12.95;;;5.65;;
57651;SDS011;43480;53.116;6.734;2024-02-14T06:10:39;8.18;;;5.00;;
57651;SDS011;43480;53.116;6.734;2024-02-14T06:13:05;8.60;;;5.00;;
57651;SDS011;43480;53.116;6.734;2024-02-14T06:15:30;8.40;;;4.88;;
57651;SDS011;43480;53.116;6.734;2024-02-14T06:17:56;9.30;;;5.60;;
57651;SDS011;43480;53.116;6.734;2024-02-14T06:20:22;8.75;;;5.63;;
57651;SDS011;43480;53.116;6.734;2024-02-14T06:22:48;8.68;;;5.50;;
57651;SDS011;43480;53.116;6.734;2024-02-14T06:25:14;11.27;;;5.82;;
57651;SDS011;43480;53.116;6.734;2024-02-14T06:27:41;10.85;;;6.22;;
57651;SDS011;43480;53.116;6.734;2024-02-14T06:30:07;9.50;;;5.95;;
57651;SDS011;43480;53.116;6.734;2024-02-14T06:32:33;13.40;;;7.30;;
57651;SDS011;43480;53.116;6.734;2024-02-14T06:34:59;12.90;;;7.82;;
57651;SDS011;43480;53.116;6.734;2024-02-14T06:37:25;20.85;;;9.05;;
57651;SDS011;43480;53.116;6.734;2024-02-14T06:39:50;16.20;;;9.05;;
57651;SDS011;43480;53.116;6.734;2024-02-14T06:42:16;20.02;;;10.40;;
57651;SDS011;43480;53.116;6.734;2024-02-14T06:44:42;15.60;;;9.82;;
57651;SDS011;43480;53.116;6.734;2024-02-14T06:47:08;21.23;;;11.27;;
57651;SDS011;43480;53.116;6.734;2024-02-14T06:49:34;22.95;;;10.30;;
57651;SDS011;43480;53.116;6.734;2024-02-14T06:51:59;18.65;;;9.70;;
57651;SDS011;43480;53.116;6.734;2024-02-14T06:54:26;23.27;;;10.23;;
57651;SDS011;43480;53.116;6.734;2024-02-14T06:56:51;20.88;;;10.95;;
57651;SDS011;43480;53.116;6.734;2024-02-14T06:59:17;18.73;;;9.27;;
57651;SDS011;43480;53.116;6.734;2024-02-14T07:01:43;20.73;;;9.98;;
57651;SDS011;43480;53.116;6.734;2024-02-14T07:04:08;23.90;;;11.05;;
57651;SDS011;43480;53.116;6.734;2024-02-14T07:06:34;25.15;;;9.90;;
57651;SDS011;43480;53.116;6.734;2024-02-14T07:09:01;23.60;;;11.25;;
57651;SDS011;43480;53.116;6.734;2024-02-14T07:11:27;23.88;;;12.00;;
57651;SDS011;43480;53.116;6.734;2024-02-14T07:13:52;29.08;;;12.25;;
57651;SDS011;43480;53.116;6.734;2024-02-14T07:16:18;25.83;;;11.70;;
57651;SDS011;43480;53.116;6.734;2024-02-14T07:18:44;25.45;;;11.07;;
57651;SDS011;43480;53.116;6.734;2024-02-14T07:21:10;29.33;;;12.02;;
57651;SDS011;43480;53.116;6.734;2024-02-14T07:23:35;36.53;;;13.40;;
57651;SDS011;43480;53.116;6.734;2024-02-14T07:26:01;34.80;;;12.35;;
57651;SDS011;43480;53.116;6.734;2024-02-14T07:28:27;39.13;;;13.95;;
57651;SDS011;43480;53.116;6.734;2024-02-14T07:30:53;34.20;;;14.52;;
57651;SDS011;43480;53.116;6.734;2024-02-14T07:33:18;46.15;;;14.45;;
57651;SDS011;43480;53.116;6.734;2024-02-14T07:35:44;41.47;;;13.43;;
57651;SDS011;43480;53.116;6.734;2024-02-14T07:38:12;35.72;;;14.05;;
57651;SDS011;43480;53.116;6.734;2024-02-14T07:40:38;45.50;;;13.63;;
57651;SDS011;43480;53.116;6.734;2024-02-14T07:43:04;45.63;;;13.07;;
57651;SDS011;43480;53.116;6.734;2024-02-14T07:45:32;43.15;;;14.23;;
57651;SDS011;43480;53.116;6.734;2024-02-14T07:47:58;43.72;;;13.55;;
57651;SDS011;43480;53.116;6.734;2024-02-14T07:50:23;39.15;;;14.02;;
57651;SDS011;43480;53.116;6.734;2024-02-14T07:52:49;40.60;;;13.38;;
57651;SDS011;43480;53.116;6.734;2024-02-14T07:55:15;42.35;;;13.40;;
57651;SDS011;43480;53.116;6.734;2024-02-14T07:57:41;41.80;;;12.00;;
57651;SDS011;43480;53.116;6.734;2024-02-14T08:00:07;37.20;;;12.55;;
57651;SDS011;43480;53.116;6.734;2024-02-14T08:02:34;45.70;;;11.18;;
57651;SDS011;43480;53.116;6.734;2024-02-14T08:05:00;29.60;;;10.43;;
57651;SDS011;43480;53.116;6.734;2024-02-14T08:07:26;36.60;;;11.02;;
57651;SDS011;43480;53.116;6.734;2024-02-14T08:09:52;38.63;;;11.15;;
57651;SDS011;43480;53.116;6.734;2024-02-14T08:12:18;28.98;;;9.80;;
57651;SDS011;43480;53.116;6.734;2024-02-14T08:14:44;32.45;;;8.85;;
57651;SDS011;43480;53.116;6.734;2024-02-14T08:17:09;35.17;;;11.98;;
57651;SDS011;43480;53.116;6.734;2024-02-14T08:19:35;32.88;;;11.10;;
57651;SDS011;43480;53.116;6.734;2024-02-14T08:22:01;32.58;;;10.82;;
57651;SDS011;43480;53.116;6.734;2024-02-14T08:24:27;35.75;;;10.95;;
57651;SDS011;43480;53.116;6.734;2024-02-14T08:26:53;32.60;;;10.95;;
57651;SDS011;43480;53.116;6.734;2024-02-14T08:29:20;33.10;;;11.52;;
57651;SDS011;43480;53.116;6.734;2024-02-14T08:31:45;40.00;;;11.38;;
57651;SDS011;43480;53.116;6.734;2024-02-14T08:34:11;35.75;;;11.30;;
57651;SDS011;43480;53.116;6.734;2024-02-14T08:36:37;35.05;;;12.70;;
57651;SDS011;43480;53.116;6.734;2024-02-14T08:39:09;35.28;;;11.70;;
57651;SDS011;43480;53.116;6.734;2024-02-14T08:41:36;28.50;;;11.68;;
57651;SDS011;43480;53.116;6.734;2024-02-14T08:44:02;29.15;;;11.65;;
57651;SDS011;43480;53.116;6.734;2024-02-14T08:46:30;25.98;;;11.43;;
57651;SDS011;43480;53.116;6.734;2024-02-14T08:48:55;30.25;;;11.20;;
57651;SDS011;43480;53.116;6.734;2024-02-14T08:51:21;26.73;;;10.35;;
57651;SDS011;43480;53.116;6.734;2024-02-14T08:53:47;32.47;;;10.85;;
57651;SDS011;43480;53.116;6.734;2024-02-14T08:56:13;24.58;;;9.38;;
57651;SDS011;43480;53.116;6.734;2024-02-14T08:58:39;23.30;;;9.38;;
57651;SDS011;43480;53.116;6.734;2024-02-14T09:01:05;26.38;;;9.20;;
57651;SDS011;43480;53.116;6.734;2024-02-14T09:03:32;17.25;;;8.65;;
57651;SDS011;43480;53.116;6.734;2024-02-14T09:05:58;24.45;;;8.38;;
57651;SDS011;43480;53.116;6.734;2024-02-14T09:08:23;18.25;;;8.52;;
57651;SDS011;43480;53.116;6.734;2024-02-14T09:10:52;20.33;;;8.57;;
57651;SDS011;43480;53.116;6.734;2024-02-14T09:13:17;26.15;;;9.40;;
57651;SDS011;43480;53.116;6.734;2024-02-14T09:15:43;21.58;;;8.60;;
57651;SDS011;43480;53.116;6.734;2024-02-14T09:18:09;20.83;;;9.35;;
57651;SDS011;43480;53.116;6.734;2024-02-14T09:20:34;22.23;;;8.98;;
57651;SDS011;43480;53.116;6.734;2024-02-14T09:23:02;23.98;;;8.95;;
57651;SDS011;43480;53.116;6.734;2024-02-14T09:25:28;19.15;;;9.70;;
57651;SDS011;43480;53.116;6.734;2024-02-14T09:27:54;23.50;;;8.48;;
57651;SDS011;43480;53.116;6.734;2024-02-14T09:30:19;20.30;;;8.52;;
57651;SDS011;43480;53.116;6.734;2024-02-14T09:32:45;23.88;;;8.57;;
57651;SDS011;43480;53.116;6.734;2024-02-14T09:35:12;24.13;;;8.85;;
57651;SDS011;43480;53.116;6.734;2024-02-14T09:37:39;18.75;;;9.80;;
57651;SDS011;43480;53.116;6.734;2024-02-14T09:40:05;20.42;;;7.78;;
57651;SDS011;43480;53.116;6.734;2024-02-14T09:42:37;19.25;;;8.40;;
57651;SDS011;43480;53.116;6.734;2024-02-14T09:45:08;24.52;;;9.05;;
57651;SDS011;43480;53.116;6.734;2024-02-14T09:47:34;16.52;;;8.40;;
57651;SDS011;43480;53.116;6.734;2024-02-14T09:50:02;24.75;;;8.82;;
57651;SDS011;43480;53.116;6.734;2024-02-14T09:52:28;20.90;;;8.55;;
57651;SDS011;43480;53.116;6.734;2024-02-14T09:54:56;22.83;;;8.70;;
57651;SDS011;43480;53.116;6.734;2024-02-14T09:57:22;20.98;;;9.05;;
57651;SDS011;43480;53.116;6.734;2024-02-14T09:59:50;17.83;;;8.20;;
57651;SDS011;43480;53.116;6.734;2024-02-14T10:02:16;18.73;;;7.75;;
57651;SDS011;43480;53.116;6.734;2024-02-14T10:04:43;16.15;;;7.47;;
57651;SDS011;43480;53.116;6.734;2024-02-14T10:07:08;17.27;;;7.85;;
57651;SDS011;43480;53.116;6.734;2024-02-14T10:09:40;18.75;;;11.70;;
57651;SDS011;43480;53.116;6.734;2024-02-14T10:12:09;19.58;;;8.25;;
57651;SDS011;43480;53.116;6.734;2024-02-14T10:14:38;21.83;;;11.05;;
57651;SDS011;43480;53.116;6.734;2024-02-14T10:17:04;18.02;;;8.52;;
57651;SDS011;43480;53.116;6.734;2024-02-14T10:19:29;24.92;;;10.88;;
57651;SDS011;43480;53.116;6.734;2024-02-14T10:21:56;19.70;;;9.68;;
57651;SDS011;43480;53.116;6.734;2024-02-14T10:24:26;28.92;;;9.48;;
57651;SDS011;43480;53.116;6.734;2024-02-14T10:26:53;20.02;;;10.00;;
57651;SDS011;43480;53.116;6.734;2024-02-14T10:29:22;17.55;;;8.55;;
57651;SDS011;43480;53.116;6.734;2024-02-14T10:31:48;15.45;;;9.75;;
57651;SDS011;43480;53.116;6.734;2024-02-14T10:34:14;15.55;;;8.50;;
57651;SDS011;43480;53.116;6.734;2024-02-14T10:36:40;15.50;;;7.53;;
57651;SDS011;43480;53.116;6.734;2024-02-14T10:39:09;16.27;;;7.70;;
57651;SDS011;43480;53.116;6.734;2024-02-14T10:41:36;14.93;;;7.68;;
57651;SDS011;43480;53.116;6.734;2024-02-14T10:44:05;11.90;;;6.57;;
57651;SDS011;43480;53.116;6.734;2024-02-14T10:46:35;9.35;;;5.40;;
57651;SDS011;43480;53.116;6.734;2024-02-14T10:49:03;9.38;;;5.53;;
57651;SDS011;43480;53.116;6.734;2024-02-14T10:51:30;8.35;;;4.60;;
57651;SDS011;43480;53.116;6.734;2024-02-14T10:53:58;8.65;;;5.15;;
57651;SDS011;43480;53.116;6.734;2024-02-14T10:56:27;8.95;;;4.60;;
57651;SDS011;43480;53.116;6.734;2024-02-14T10:58:55;10.13;;;4.30;;
57651;SDS011;43480;53.116;6.734;2024-02-14T11:01:24;8.18;;;3.72;;
57651;SDS011;43480;53.116;6.734;2024-02-14T11:03:52;8.43;;;3.13;;
57651;SDS011;43480;53.116;6.734;2024-02-14T11:06:20;5.72;;;3.38;;
57651;SDS011;43480;53.116;6.734;2024-02-14T11:08:56;7.40;;;3.70;;
57651;SDS011;43480;53.116;6.734;2024-02-14T11:11:32;9.00;;;3.30;;
57651;SDS011;43480;53.116;6.734;2024-02-14T11:13:59;7.50;;;3.65;;
57651;SDS011;43480;53.116;6.734;2024-02-14T11:16:28;7.25;;;4.22;;
57651;SDS011;43480;53.116;6.734;2024-02-14T11:19:07;7.65;;;4.40;;
57651;SDS011;43480;53.116;6.734;2024-02-14T11:21:36;10.15;;;5.88;;
57651;SDS011;43480;53.116;6.734;2024-02-14T11:24:11;9.68;;;5.78;;
57651;SDS011;43480;53.116;6.734;2024-02-14T11:26:46;9.93;;;6.25;;
57651;SDS011;43480;53.116;6.734;2024-02-14T11:29:17;9.35;;;5.57;;
57651;SDS011;43480;53.116;6.734;2024-02-14T11:31:46;10.13;;;6.72;;
57651;SDS011;43480;53.116;6.734;2024-02-14T11:34:16;10.25;;;6.63;;
57651;SDS011;43480;53.116;6.734;2024-02-14T11:36:42;9.32;;;6.10;;
57651;SDS011;43480;53.116;6.734;2024-02-14T11:39:09;9.85;;;5.68;;
57651;SDS011;43480;53.116;6.734;2024-02-14T11:41:37;9.70;;;5.95;;
57651;SDS011;43480;53.116;6.734;2024-02-14T11:44:03;9.35;;;5.82;;
57651;SDS011;43480;53.116;6.734;2024-02-14T11:46:33;10.20;;;5.63;;
57651;SDS011;43480;53.116;6.734;2024-02-14T11:49:00;9.02;;;6.43;;
57651;SDS011;43480;53.116;6.734;2024-02-14T11:51:30;8.32;;;5.78;;
57651;SDS011;43480;53.116;6.734;2024-02-14T11:53:58;10.75;;;6.47;;
57651;SDS011;43480;53.116;6.734;2024-02-14T11:56:33;9.70;;;5.90;;
57651;SDS011;43480;53.116;6.734;2024-02-14T11:59:00;9.35;;;6.05;;
57651;SDS011;43480;53.116;6.734;2024-02-14T12:01:34;9.43;;;6.93;;
57651;SDS011;43480;53.116;6.734;2024-02-14T12:04:00;10.68;;;7.28;;
57651;SDS011;43480;53.116;6.734;2024-02-14T12:06:27;10.05;;;6.13;;
57651;SDS011;43480;53.116;6.734;2024-02-14T12:08:54;13.38;;;7.30;;
57651;SDS011;43480;53.116;6.734;2024-02-14T12:11:21;10.60;;;7.65;;
57651;SDS011;43480;53.116;6.734;2024-02-14T12:13:49;11.32;;;7.70;;
57651;SDS011;43480;53.116;6.734;2024-02-14T12:16:15;14.57;;;8.73;;
57651;SDS011;43480;53.116;6.734;2024-02-14T12:18:41;14.98;;;9.32;;
57651;SDS011;43480;53.116;6.734;2024-02-14T12:21:07;13.27;;;8.40;;
57651;SDS011;43480;53.116;6.734;2024-02-14T12:23:33;12.90;;;8.82;;
57651;SDS011;43480;53.116;6.734;2024-02-14T12:26:02;13.98;;;8.32;;
57651;SDS011;43480;53.116;6.734;2024-02-14T12:28:29;13.57;;;9.85;;
57651;SDS011;43480;53.116;6.734;2024-02-14T12:30:56;12.98;;;9.25;;
57651;SDS011;43480;53.116;6.734;2024-02-14T12:33:23;12.85;;;9.63;;
57651;SDS011;43480;53.116;6.734;2024-02-14T12:35:50;14.88;;;9.90;;
57651;SDS011;43480;53.116;6.734;2024-02-14T12:38:18;14.68;;;11.10;;
57651;SDS011;43480;53.116;6.734;2024-02-14T12:40:45;15.18;;;10.85;;
57651;SDS011;43480;53.116;6.734;2024-02-14T12:43:11;16.17;;;10.65;;
57651;SDS011;43480;53.116;6.734;2024-02-14T12:45:38;13.82;;;10.43;;
57651;SDS011;43480;53.116;6.734;2024-02-14T12:48:05;13.65;;;10.43;;
57651;SDS011;43480;53.116;6.734;2024-02-14T12:50:33;15.27;;;11.25;;
57651;SDS011;43480;53.116;6.734;2024-02-14T12:52:59;15.55;;;10.95;;
57651;SDS011;43480;53.116;6.734;2024-02-14T12:55:35;13.38;;;9.57;;
57651;SDS011;43480;53.116;6.734;2024-02-14T12:58:01;13.73;;;10.73;;
57651;SDS011;43480;53.116;6.734;2024-02-14T13:00:27;16.38;;;11.80;;
57651;SDS011;43480;53.116;6.734;2024-02-14T13:02:54;17.45;;;11.13;;
57651;SDS011;43480;53.116;6.734;2024-02-14T13:05:20;15.25;;;10.82;;
57651;SDS011;43480;53.116;6.734;2024-02-14T13:07:45;14.48;;;10.82;;
57651;SDS011;43480;53.116;6.734;2024-02-14T13:10:12;15.38;;;10.60;;
57651;SDS011;43480;53.116;6.734;2024-02-14T13:12:38;14.35;;;11.10;;
57651;SDS011;43480;53.116;6.734;2024-02-14T13:15:04;13.23;;;10.75;;
57651;SDS011;43480;53.116;6.734;2024-02-14T13:17:34;15.55;;;10.70;;
57651;SDS011;43480;53.116;6.734;2024-02-14T13:19:59;14.85;;;10.07;;
57651;SDS011;43480;53.116;6.734;2024-02-14T13:22:25;13.10;;;9.00;;
57651;SDS011;43480;53.116;6.734;2024-02-14T13:24:51;13.70;;;9.68;;
57651;SDS011;43480;53.116;6.734;2024-02-14T13:27:17;13.30;;;9.73;;
57651;SDS011;43480;53.116;6.734;2024-02-14T13:29:45;12.43;;;9.52;;
57651;SDS011;43480;53.116;6.734;2024-02-14T13:32:10;12.48;;;9.65;;
57651;SDS011;43480;53.116;6.734;2024-02-14T13:34:36;13.13;;;9.43;;
57651;SDS011;43480;53.116;6.734;2024-02-14T13:37:02;12.85;;;9.90;;
57651;SDS011;43480;53.116;6.734;2024-02-14T13:39:28;13.95;;;10.35;;
57651;SDS011;43480;53.116;6.734;2024-02-14T13:41:53;14.20;;;10.60;;
57651;SDS011;43480;53.116;6.734;2024-02-14T13:44:22;15.27;;;10.73;;
57651;SDS011;43480;53.116;6.734;2024-02-14T13:46:49;16.38;;;12.90;;
57651;SDS011;43480;53.116;6.734;2024-02-14T13:49:15;17.20;;;12.52;;
57651;SDS011;43480;53.116;6.734;2024-02-14T13:51:46;17.42;;;12.52;;
57651;SDS011;43480;53.116;6.734;2024-02-14T13:54:12;18.20;;;13.13;;
57651;SDS011;43480;53.116;6.734;2024-02-14T13:56:38;18.80;;;13.60;;
57651;SDS011;43480;53.116;6.734;2024-02-14T13:59:04;19.50;;;14.38;;
57651;SDS011;43480;53.116;6.734;2024-02-14T14:01:29;17.10;;;11.82;;
57651;SDS011;43480;53.116;6.734;2024-02-14T14:03:55;16.45;;;11.98;;
57651;SDS011;43480;53.116;6.734;2024-02-14T14:06:23;19.55;;;13.60;;
57651;SDS011;43480;53.116;6.734;2024-02-14T14:08:52;21.20;;;13.40;;
57651;SDS011;43480;53.116;6.734;2024-02-14T14:11:18;22.35;;;15.15;;
57651;SDS011;43480;53.116;6.734;2024-02-14T14:13:43;21.75;;;14.13;;
57651;SDS011;43480;53.116;6.734;2024-02-14T14:16:09;23.65;;;15.95;;
57651;SDS011;43480;53.116;6.734;2024-02-14T14:18:36;20.33;;;14.45;;
57651;SDS011;43480;53.116;6.734;2024-02-14T14:21:01;22.95;;;15.88;;
57651;SDS011;43480;53.116;6.734;2024-02-14T14:23:28;22.05;;;14.10;;
57651;SDS011;43480;53.116;6.734;2024-02-14T14:25:54;22.80;;;15.52;;
57651;SDS011;43480;53.116;6.734;2024-02-14T14:28:20;20.52;;;14.38;;
57651;SDS011;43480;53.116;6.734;2024-02-14T14:30:50;20.75;;;14.35;;